sensor_id;sensor_type;location;lat;lon;timestamp;temperature;humidity
44775;DHT22;31340;51.402;0.016;2022-11-23T00:01:33;6.40;99.90
44775;DHT22;31340;51.402;0.016;2022-11-23T00:04:07;6.40;99.90
44775;DHT22;31340;51.402;0.016;2022-11-23T00:06:34;6.40;99.90
44775;DHT22;31340;51.402;0.016;2022-11-23T00:09:03;6.30;99.90
44775;DHT22;31340;51.402;0.016;2022-11-23T00:11:33;6.30;99.90
44775;DHT22;31340;51.402;0.016;2022-11-23T00:14:01;6.40;99.90
44775;DHT22;31340;51.402;0.016;2022-11-23T00:16:29;6.30;99.90
44775;DHT22;31340;51.402;0.016;2022-11-23T00:19:15;6.30;99.90
44775;DHT22;31340;51.402;0.016;2022-11-23T00:21:42;6.40;99.90
44775;DHT22;31340;51.402;0.016;2022-11-23T00:24:11;6.40;99.90
44775;DHT22;31340;51.402;0.016;2022-11-23T00:26:39;6.40;99.90
44775;DHT22;31340;51.402;0.016;2022-11-23T00:29:07;6.40;99.90
44775;DHT22;31340;51.402;0.016;2022-11-23T00:31:35;6.40;99.90
44775;DHT22;31340;51.402;0.016;2022-11-23T00:34:05;6.40;99.90
44775;DHT22;31340;51.402;0.016;2022-11-23T00:36:33;6.40;99.90
44775;DHT22;31340;51.402;0.016;2022-11-23T00:39:01;6.40;99.90
44775;DHT22;31340;51.402;0.016;2022-11-23T00:41:28;6.40;99.90
44775;DHT22;31340;51.402;0.016;2022-11-23T00:43:56;6.40;99.90
44775;DHT22;31340;51.402;0.016;2022-11-23T00:46:26;6.40;99.90
44775;DHT22;31340;51.402;0.016;2022-11-23T00:48:56;6.40;99.90
44775;DHT22;31340;51.402;0.016;2022-11-23T00:51:27;6.40;99.90
44775;DHT22;31340;51.402;0.016;2022-11-23T00:53:56;6.40;99.90
44775;DHT22;31340;51.402;0.016;2022-11-23T00:56:25;6.40;99.90
44775;DHT22;31340;51.402;0.016;2022-11-23T00:58:55;6.40;99.90
44775;DHT22;31340;51.402;0.016;2022-11-23T01:01:28;6.40;99.90
44775;DHT22;31340;51.402;0.016;2022-11-23T01:03:59;6.40;99.90
44775;DHT22;31340;51.402;0.016;2022-11-23T01:06:35;6.40;99.90
44775;DHT22;31340;51.402;0.016;2022-11-23T01:09:06;6.40;99.90
44775;DHT22;31340;51.402;0.016;2022-11-23T01:11:35;6.50;99.90
44775;DHT22;31340;51.402;0.016;2022-11-23T01:14:03;6.40;99.90
44775;DHT22;31340;51.402;0.016;2022-11-23T01:16:34;6.50;99.90
44775;DHT22;31340;51.402;0.016;2022-11-23T01:19:05;6.50;99.90
44775;DHT22;31340;51.402;0.016;2022-11-23T01:21:35;6.40;99.90
44775;DHT22;31340;51.402;0.016;2022-11-23T01:24:14;6.50;99.90
44775;DHT22;31340;51.402;0.016;2022-11-23T01:26:43;6.50;99.90
44775;DHT22;31340;51.402;0.016;2022-11-23T01:29:13;6.40;99.90
44775;DHT22;31340;51.402;0.016;2022-11-23T01:31:41;6.40;99.90
44775;DHT22;31340;51.402;0.016;2022-11-23T01:34:19;6.40;99.90
44775;DHT22;31340;51.402;0.016;2022-11-23T01:36:47;6.40;99.90
44775;DHT22;31340;51.402;0.016;2022-11-23T01:39:15;6.40;99.90
44775;DHT22;31340;51.402;0.016;2022-11-23T01:41:44;6.40;99.90
44775;DHT22;31340;51.402;0.016;2022-11-23T01:44:33;6.40;99.90
44775;DHT22;31340;51.402;0.016;2022-11-23T01:47:07;6.50;99.90
44775;DHT22;31340;51.402;0.016;2022-11-23T01:49:43;6.40;99.90
44775;DHT22;31340;51.402;0.016;2022-11-23T01:52:16;6.50;99.90
44775;DHT22;31340;51.402;0.016;2022-11-23T01:54:49;6.50;99.90
44775;DHT22;31340;51.402;0.016;2022-11-23T01:57:25;6.50;99.90
44775;DHT22;31340;51.402;0.016;2022-11-23T01:59:55;6.50;99.90
44775;DHT22;31340;51.402;0.016;2022-11-23T02:02:25;6.50;99.90
44775;DHT22;31340;51.402;0.016;2022-11-23T02:04:56;6.50;99.90
44775;DHT22;31340;51.402;0.016;2022-11-23T02:07:27;6.50;99.90
44775;DHT22;31340;51.402;0.016;2022-11-23T02:09:56;6.50;99.90
44775;DHT22;31340;51.402;0.016;2022-11-23T02:12:27;6.60;99.90
44775;DHT22;31340;51.402;0.016;2022-11-23T02:14:55;6.60;99.90
44775;DHT22;31340;51.402;0.016;2022-11-23T02:17:23;6.60;99.90
44775;DHT22;31340;51.402;0.016;2022-11-23T02:20:07;6.60;99.90
44775;DHT22;31340;51.402;0.016;2022-11-23T02:25:33;6.70;99.90
44775;DHT22;31340;51.402;0.016;2022-11-23T02:28:02;6.70;99.90
44775;DHT22;31340;51.402;0.016;2022-11-23T02:30:31;6.70;99.90
44775;DHT22;31340;51.402;0.016;2022-11-23T02:33:03;6.70;99.90
44775;DHT22;31340;51.402;0.016;2022-11-23T02:35:33;6.80;99.90
44775;DHT22;31340;51.402;0.016;2022-11-23T02:38:01;6.80;99.90
44775;DHT22;31340;51.402;0.016;2022-11-23T02:40:34;6.80;99.90
44775;DHT22;31340;51.402;0.016;2022-11-23T02:43:02;6.80;99.90
44775;DHT22;31340;51.402;0.016;2022-11-23T02:45:58;6.80;99.90
44775;DHT22;31340;51.402;0.016;2022-11-23T02:48:25;6.90;99.90
44775;DHT22;31340;51.402;0.016;2022-11-23T02:50:52;6.90;99.90
44775;DHT22;31340;51.402;0.016;2022-11-23T02:53:20;6.90;99.90
44775;DHT22;31340;51.402;0.016;2022-11-23T02:55:47;6.90;99.90
44775;DHT22;31340;51.402;0.016;2022-11-23T02:58:17;6.90;99.90
44775;DHT22;31340;51.402;0.016;2022-11-23T03:00:45;6.90;99.90
44775;DHT22;31340;51.402;0.016;2022-11-23T03:03:17;7.00;99.90
44775;DHT22;31340;51.402;0.016;2022-11-23T03:05:45;6.90;99.90
44775;DHT22;31340;51.402;0.016;2022-11-23T03:08:12;7.00;99.90
44775;DHT22;31340;51.402;0.016;2022-11-23T03:10:40;7.00;99.90
44775;DHT22;31340;51.402;0.016;2022-11-23T03:13:08;7.00;99.90
44775;DHT22;31340;51.402;0.016;2022-11-23T03:15:38;7.00;99.90
44775;DHT22;31340;51.402;0.016;2022-11-23T03:18:06;7.00;99.90
44775;DHT22;31340;51.402;0.016;2022-11-23T03:20:35;7.00;99.90
44775;DHT22;31340;51.402;0.016;2022-11-23T03:23:04;7.00;99.90
44775;DHT22;31340;51.402;0.016;2022-11-23T03:25:32;7.10;99.90
44775;DHT22;31340;51.402;0.016;2022-11-23T03:27:59;7.00;99.90
44775;DHT22;31340;51.402;0.016;2022-11-23T03:30:27;7.00;99.90
44775;DHT22;31340;51.402;0.016;2022-11-23T03:32:55;7.00;99.90
44775;DHT22;31340;51.402;0.016;2022-11-23T03:35:23;7.00;99.90
44775;DHT22;31340;51.402;0.016;2022-11-23T03:38:14;7.00;99.90
44775;DHT22;31340;51.402;0.016;2022-11-23T03:40:44;7.00;99.90
44775;DHT22;31340;51.402;0.016;2022-11-23T03:43:22;7.00;99.90
44775;DHT22;31340;51.402;0.016;2022-11-23T03:45:49;7.00;99.90
44775;DHT22;31340;51.402;0.016;2022-11-23T03:48:18;6.90;99.90
44775;DHT22;31340;51.402;0.016;2022-11-23T03:50:45;6.90;99.90
44775;DHT22;31340;51.402;0.016;2022-11-23T03:53:13;6.90;99.90
44775;DHT22;31340;51.402;0.016;2022-11-23T03:55:44;6.90;99.90
44775;DHT22;31340;51.402;0.016;2022-11-23T03:58:13;6.90;99.90
44775;DHT22;31340;51.402;0.016;2022-11-23T04:00:42;6.90;99.90
44775;DHT22;31340;51.402;0.016;2022-11-23T04:03:13;6.80;99.90
44775;DHT22;31340;51.402;0.016;2022-11-23T04:06:19;6.80;99.90
44775;DHT22;31340;51.402;0.016;2022-11-23T04:09:08;6.80;99.90
44775;DHT22;31340;51.402;0.016;2022-11-23T04:11:47;6.70;99.90
44775;DHT22;31340;51.402;0.016;2022-11-23T04:14:16;6.70;99.90
44775;DHT22;31340;51.402;0.016;2022-11-23T04:16:45;6.70;99.90
44775;DHT22;31340;51.402;0.016;2022-11-23T04:19:13;6.60;99.90
44775;DHT22;31340;51.402;0.016;2022-11-23T04:21:41;6.60;99.90
44775;DHT22;31340;51.402;0.016;2022-11-23T04:24:09;6.60;99.90
44775;DHT22;31340;51.402;0.016;2022-11-23T04:26:39;6.60;99.90
44775;DHT22;31340;51.402;0.016;2022-11-23T04:29:09;6.60;99.90
44775;DHT22;31340;51.402;0.016;2022-11-23T04:31:40;6.50;99.90
44775;DHT22;31340;51.402;0.016;2022-11-23T04:34:17;6.50;99.90
44775;DHT22;31340;51.402;0.016;2022-11-23T04:36:45;6.50;99.90
44775;DHT22;31340;51.402;0.016;2022-11-23T04:39:13;6.50;99.90
44775;DHT22;31340;51.402;0.016;2022-11-23T04:42:01;6.50;99.90
44775;DHT22;31340;51.402;0.016;2022-11-23T04:44:30;6.50;99.90
44775;DHT22;31340;51.402;0.016;2022-11-23T04:47:02;6.50;99.90
44775;DHT22;31340;51.402;0.016;2022-11-23T04:49:32;6.60;99.90
44775;DHT22;31340;51.402;0.016;2022-11-23T04:52:00;6.60;99.90
44775;DHT22;31340;51.402;0.016;2022-11-23T04:54:34;6.60;99.90
44775;DHT22;31340;51.402;0.016;2022-11-23T04:57:06;6.60;99.90
44775;DHT22;31340;51.402;0.016;2022-11-23T04:59:34;6.60;99.90
44775;DHT22;31340;51.402;0.016;2022-11-23T05:02:02;6.60;99.90
44775;DHT22;31340;51.402;0.016;2022-11-23T05:04:51;6.60;99.90
44775;DHT22;31340;51.402;0.016;2022-11-23T05:07:20;6.60;99.90
44775;DHT22;31340;51.402;0.016;2022-11-23T05:09:54;6.70;99.90
44775;DHT22;31340;51.402;0.016;2022-11-23T05:12:22;6.60;99.90
44775;DHT22;31340;51.402;0.016;2022-11-23T05:14:50;6.70;99.90
44775;DHT22;31340;51.402;0.016;2022-11-23T05:17:23;6.60;99.90
44775;DHT22;31340;51.402;0.016;2022-11-23T05:19:53;6.70;99.90
44775;DHT22;31340;51.402;0.016;2022-11-23T05:22:23;6.70;99.90
44775;DHT22;31340;51.402;0.016;2022-11-23T05:24:52;6.70;99.90
44775;DHT22;31340;51.402;0.016;2022-11-23T05:27:23;6.70;99.90
44775;DHT22;31340;51.402;0.016;2022-11-23T05:29:52;6.70;99.90
44775;DHT22;31340;51.402;0.016;2022-11-23T05:32:22;6.80;99.90
44775;DHT22;31340;51.402;0.016;2022-11-23T05:34:51;6.80;99.90
44775;DHT22;31340;51.402;0.016;2022-11-23T05:37:20;6.80;99.90
44775;DHT22;31340;51.402;0.016;2022-11-23T05:39:53;6.80;99.90
44775;DHT22;31340;51.402;0.016;2022-11-23T05:42:23;6.90;99.90
44775;DHT22;31340;51.402;0.016;2022-11-23T05:44:53;6.90;99.90
44775;DHT22;31340;51.402;0.016;2022-11-23T05:47:27;7.00;99.90
44775;DHT22;31340;51.402;0.016;2022-11-23T05:49:55;7.00;99.90
44775;DHT22;31340;51.402;0.016;2022-11-23T05:52:27;7.10;99.90
44775;DHT22;31340;51.402;0.016;2022-11-23T05:54:55;7.10;99.90
44775;DHT22;31340;51.402;0.016;2022-11-23T05:57:23;7.20;99.90
44775;DHT22;31340;51.402;0.016;2022-11-23T05:59:52;7.20;99.90
44775;DHT22;31340;51.402;0.016;2022-11-23T06:02:24;7.20;99.90
44775;DHT22;31340;51.402;0.016;2022-11-23T06:04:58;7.30;99.90
44775;DHT22;31340;51.402;0.016;2022-11-23T06:07:37;7.40;99.90
44775;DHT22;31340;51.402;0.016;2022-11-23T06:10:10;7.40;99.90
44775;DHT22;31340;51.402;0.016;2022-11-23T06:12:44;7.50;99.90
44775;DHT22;31340;51.402;0.016;2022-11-23T06:15:16;7.60;99.90
44775;DHT22;31340;51.402;0.016;2022-11-23T06:17:45;7.70;99.90
44775;DHT22;31340;51.402;0.016;2022-11-23T06:20:17;7.70;99.90
44775;DHT22;31340;51.402;0.016;2022-11-23T06:22:53;7.80;99.90
44775;DHT22;31340;51.402;0.016;2022-11-23T06:25:24;7.80;99.90
44775;DHT22;31340;51.402;0.016;2022-11-23T06:27:59;7.90;99.90
44775;DHT22;31340;51.402;0.016;2022-11-23T06:30:39;8.00;99.90
44775;DHT22;31340;51.402;0.016;2022-11-23T06:33:08;8.00;99.90
44775;DHT22;31340;51.402;0.016;2022-11-23T06:35:57;8.10;99.90
44775;DHT22;31340;51.402;0.016;2022-11-23T06:38:30;8.20;99.90
44775;DHT22;31340;51.402;0.016;2022-11-23T06:41:02;8.20;99.90
44775;DHT22;31340;51.402;0.016;2022-11-23T06:43:31;8.30;99.90
44775;DHT22;31340;51.402;0.016;2022-11-23T06:46:04;8.40;99.90
44775;DHT22;31340;51.402;0.016;2022-11-23T06:48:42;8.40;99.90
44775;DHT22;31340;51.402;0.016;2022-11-23T06:51:12;8.40;99.90
44775;DHT22;31340;51.402;0.016;2022-11-23T06:53:41;8.50;99.90
44775;DHT22;31340;51.402;0.016;2022-11-23T06:56:10;8.60;99.90
44775;DHT22;31340;51.402;0.016;2022-11-23T06:58:39;8.60;99.90
44775;DHT22;31340;51.402;0.016;2022-11-23T07:01:11;8.70;99.90
44775;DHT22;31340;51.402;0.016;2022-11-23T07:04:01;8.70;99.90
44775;DHT22;31340;51.402;0.016;2022-11-23T07:06:34;8.80;99.90
44775;DHT22;31340;51.402;0.016;2022-11-23T07:09:07;8.80;99.90
44775;DHT22;31340;51.402;0.016;2022-11-23T07:12:08;8.90;99.90
44775;DHT22;31340;51.402;0.016;2022-11-23T07:14:36;8.90;99.90
44775;DHT22;31340;51.402;0.016;2022-11-23T07:17:04;9.00;99.90
44775;DHT22;31340;51.402;0.016;2022-11-23T07:19:34;9.00;99.90
44775;DHT22;31340;51.402;0.016;2022-11-23T07:22:02;9.10;99.90
44775;DHT22;31340;51.402;0.016;2022-11-23T07:24:30;9.10;99.90
44775;DHT22;31340;51.402;0.016;2022-11-23T07:27:07;9.10;99.90
44775;DHT22;31340;51.402;0.016;2022-11-23T07:29:35;9.20;99.90
44775;DHT22;31340;51.402;0.016;2022-11-23T07:32:04;9.20;99.90
44775;DHT22;31340;51.402;0.016;2022-11-23T07:34:33;9.30;99.90
44775;DHT22;31340;51.402;0.016;2022-11-23T07:37:01;9.30;99.90
44775;DHT22;31340;51.402;0.016;2022-11-23T07:39:33;9.40;99.90
44775;DHT22;31340;51.402;0.016;2022-11-23T07:42:20;9.50;99.90
44775;DHT22;31340;51.402;0.016;2022-11-23T07:45:03;9.50;99.90
44775;DHT22;31340;51.402;0.016;2022-11-23T07:47:31;9.60;99.90
44775;DHT22;31340;51.402;0.016;2022-11-23T07:49:59;9.70;99.90
44775;DHT22;31340;51.402;0.016;2022-11-23T07:52:27;9.80;99.90
44775;DHT22;31340;51.402;0.016;2022-11-23T07:54:54;9.80;99.90
44775;DHT22;31340;51.402;0.016;2022-11-23T07:57:22;9.90;99.90
44775;DHT22;31340;51.402;0.016;2022-11-23T07:59:50;9.90;99.90
44775;DHT22;31340;51.402;0.016;2022-11-23T08:02:17;10.00;99.90
44775;DHT22;31340;51.402;0.016;2022-11-23T08:04:45;10.10;99.90
44775;DHT22;31340;51.402;0.016;2022-11-23T08:07:13;10.10;99.90
44775;DHT22;31340;51.402;0.016;2022-11-23T08:09:41;10.20;99.90
44775;DHT22;31340;51.402;0.016;2022-11-23T08:12:09;10.20;99.90
44775;DHT22;31340;51.402;0.016;2022-11-23T08:14:36;10.30;99.90
44775;DHT22;31340;51.402;0.016;2022-11-23T08:17:04;10.30;99.90
44775;DHT22;31340;51.402;0.016;2022-11-23T08:19:31;10.30;99.90
44775;DHT22;31340;51.402;0.016;2022-11-23T08:21:59;10.40;99.90
44775;DHT22;31340;51.402;0.016;2022-11-23T08:24:26;10.40;99.90
44775;DHT22;31340;51.402;0.016;2022-11-23T08:26:55;10.50;99.90
44775;DHT22;31340;51.402;0.016;2022-11-23T08:29:25;10.50;99.90
44775;DHT22;31340;51.402;0.016;2022-11-23T08:31:53;10.60;99.90
44775;DHT22;31340;51.402;0.016;2022-11-23T08:34:21;10.60;99.90
44775;DHT22;31340;51.402;0.016;2022-11-23T08:36:48;10.70;99.90
44775;DHT22;31340;51.402;0.016;2022-11-23T08:39:16;10.80;99.90
44775;DHT22;31340;51.402;0.016;2022-11-23T08:41:45;10.80;99.90
44775;DHT22;31340;51.402;0.016;2022-11-23T08:44:13;10.80;99.90
44775;DHT22;31340;51.402;0.016;2022-11-23T08:46:41;10.90;99.90
44775;DHT22;31340;51.402;0.016;2022-11-23T08:49:08;10.90;99.90
44775;DHT22;31340;51.402;0.016;2022-11-23T08:51:36;10.90;99.90
44775;DHT22;31340;51.402;0.016;2022-11-23T08:54:04;11.00;99.90
44775;DHT22;31340;51.402;0.016;2022-11-23T08:56:31;11.00;99.90
44775;DHT22;31340;51.402;0.016;2022-11-23T08:59:00;11.00;99.90
44775;DHT22;31340;51.402;0.016;2022-11-23T09:01:28;11.10;99.90
44775;DHT22;31340;51.402;0.016;2022-11-23T09:03:55;11.10;99.90
44775;DHT22;31340;51.402;0.016;2022-11-23T09:06:23;11.10;99.90
44775;DHT22;31340;51.402;0.016;2022-11-23T09:08:55;11.20;99.90
44775;DHT22;31340;51.402;0.016;2022-11-23T09:11:23;11.20;99.90
44775;DHT22;31340;51.402;0.016;2022-11-23T09:13:52;11.20;99.90
44775;DHT22;31340;51.402;0.016;2022-11-23T09:16:20;11.20;99.90
44775;DHT22;31340;51.402;0.016;2022-11-23T09:18:48;11.20;99.90
44775;DHT22;31340;51.402;0.016;2022-11-23T09:21:16;11.20;99.90
44775;DHT22;31340;51.402;0.016;2022-11-23T09:23:44;11.30;99.90
44775;DHT22;31340;51.402;0.016;2022-11-23T09:26:11;11.30;99.90
44775;DHT22;31340;51.402;0.016;2022-11-23T09:28:39;11.30;99.90
44775;DHT22;31340;51.402;0.016;2022-11-23T09:31:11;11.30;99.90
44775;DHT22;31340;51.402;0.016;2022-11-23T09:33:39;11.30;99.90
44775;DHT22;31340;51.402;0.016;2022-11-23T09:36:07;11.30;99.90
44775;DHT22;31340;51.402;0.016;2022-11-23T09:38:34;11.30;99.90
44775;DHT22;31340;51.402;0.016;2022-11-23T09:52:24;11.60;99.90
44775;DHT22;31340;51.402;0.016;2022-11-23T09:54:55;11.60;99.90
44775;DHT22;31340;51.402;0.016;2022-11-23T09:57:28;11.70;99.90
44775;DHT22;31340;51.402;0.016;2022-11-23T10:00:05;11.70;99.90
44775;DHT22;31340;51.402;0.016;2022-11-23T10:02:39;11.80;99.90
44775;DHT22;31340;51.402;0.016;2022-11-23T10:05:18;11.80;99.90
44775;DHT22;31340;51.402;0.016;2022-11-23T10:13:32;11.90;99.90
44775;DHT22;31340;51.402;0.016;2022-11-23T10:24:36;12.00;99.90
44775;DHT22;31340;51.402;0.016;2022-11-23T10:27:21;12.00;99.90
44775;DHT22;31340;51.402;0.016;2022-11-23T10:29:49;12.00;99.90
44775;DHT22;31340;51.402;0.016;2022-11-23T10:32:59;12.00;99.90
44775;DHT22;31340;51.402;0.016;2022-11-23T10:35:33;12.00;99.90
44775;DHT22;31340;51.402;0.016;2022-11-23T10:38:13;12.00;99.90
44775;DHT22;31340;51.402;0.016;2022-11-23T10:43:30;12.00;99.90
44775;DHT22;31340;51.402;0.016;2022-11-23T10:49:27;12.00;99.90
44775;DHT22;31340;51.402;0.016;2022-11-23T10:54:53;12.00;99.90
44775;DHT22;31340;51.402;0.016;2022-11-23T10:57:30;12.00;99.90
44775;DHT22;31340;51.402;0.016;2022-11-23T11:02:39;12.20;99.90
44775;DHT22;31340;51.402;0.016;2022-11-23T11:05:33;12.20;99.90
44775;DHT22;31340;51.402;0.016;2022-11-23T11:08:24;12.30;99.90
44775;DHT22;31340;51.402;0.016;2022-11-23T11:11:07;12.40;99.90
44775;DHT22;31340;51.402;0.016;2022-11-23T11:13:41;12.40;99.90
44775;DHT22;31340;51.402;0.016;2022-11-23T11:18:51;12.60;99.90
44775;DHT22;31340;51.402;0.016;2022-11-23T11:21:20;12.60;99.90
44775;DHT22;31340;51.402;0.016;2022-11-23T11:23:53;12.70;99.90
44775;DHT22;31340;51.402;0.016;2022-11-23T11:26:23;12.90;99.90
44775;DHT22;31340;51.402;0.016;2022-11-23T11:28:54;13.00;99.90
44775;DHT22;31340;51.402;0.016;2022-11-23T11:42:54;13.50;99.90
44775;DHT22;31340;51.402;0.016;2022-11-23T11:45:37;13.50;99.90
44775;DHT22;31340;51.402;0.016;2022-11-23T11:48:29;13.60;99.90
44775;DHT22;31340;51.402;0.016;2022-11-23T11:51:39;13.70;99.90
44775;DHT22;31340;51.402;0.016;2022-11-23T11:54:25;13.80;99.90
44775;DHT22;31340;51.402;0.016;2022-11-23T11:57:15;14.00;99.90
44775;DHT22;31340;51.402;0.016;2022-11-23T11:59:51;14.10;99.90
44775;DHT22;31340;51.402;0.016;2022-11-23T12:02:26;14.20;99.90
44775;DHT22;31340;51.402;0.016;2022-11-23T12:10:43;14.60;99.60
44775;DHT22;31340;51.402;0.016;2022-11-23T12:13:16;14.80;99.20
44775;DHT22;31340;51.402;0.016;2022-11-23T12:15:47;14.90;98.90
44775;DHT22;31340;51.402;0.016;2022-11-23T12:18:37;15.00;98.80
44775;DHT22;31340;51.402;0.016;2022-11-23T12:24:05;15.30;97.20
44775;DHT22;31340;51.402;0.016;2022-11-23T12:29:30;15.50;96.30
44775;DHT22;31340;51.402;0.016;2022-11-23T12:41:44;15.80;95.20
44775;DHT22;31340;51.402;0.016;2022-11-23T12:58:23;16.50;93.20
44775;DHT22;31340;51.402;0.016;2022-11-23T13:14:38;17.00;91.00
44775;DHT22;31340;51.402;0.016;2022-11-23T13:20:27;17.20;90.50
44775;DHT22;31340;51.402;0.016;2022-11-23T13:22:56;17.30;90.40
44775;DHT22;31340;51.402;0.016;2022-11-23T13:25:27;17.30;90.10
44775;DHT22;31340;51.402;0.016;2022-11-23T13:28:04;17.40;89.50
44775;DHT22;31340;51.402;0.016;2022-11-23T13:30:37;17.50;89.20
44775;DHT22;31340;51.402;0.016;2022-11-23T13:33:27;17.60;88.00
44775;DHT22;31340;51.402;0.016;2022-11-23T13:36:03;17.60;87.20
44775;DHT22;31340;51.402;0.016;2022-11-23T13:38:42;17.70;86.80
44775;DHT22;31340;51.402;0.016;2022-11-23T13:44:29;17.70;85.90
44775;DHT22;31340;51.402;0.016;2022-11-23T13:49:49;17.60;85.70
44775;DHT22;31340;51.402;0.016;2022-11-23T13:55:06;17.60;84.80
44775;DHT22;31340;51.402;0.016;2022-11-23T13:57:45;17.60;84.40
44775;DHT22;31340;51.402;0.016;2022-11-23T14:00:52;17.60;84.80
44775;DHT22;31340;51.402;0.016;2022-11-23T14:03:50;17.60;83.20
44775;DHT22;31340;51.402;0.016;2022-11-23T14:09:32;17.30;84.10
44775;DHT22;31340;51.402;0.016;2022-11-23T14:14:48;17.10;85.00
44775;DHT22;31340;51.402;0.016;2022-11-23T14:20:09;16.90;85.30
44775;DHT22;31340;51.402;0.016;2022-11-23T14:25:59;16.60;84.50
44775;DHT22;31340;51.402;0.016;2022-11-23T14:29:08;16.30;84.20
44775;DHT22;31340;51.402;0.016;2022-11-23T14:37:40;15.80;84.10
44775;DHT22;31340;51.402;0.016;2022-11-23T14:43:15;15.40;86.30
44775;DHT22;31340;51.402;0.016;2022-11-23T14:45:46;15.20;86.50
44775;DHT22;31340;51.402;0.016;2022-11-23T14:48:22;15.20;86.70
44775;DHT22;31340;51.402;0.016;2022-11-23T14:51:04;15.00;86.80
44775;DHT22;31340;51.402;0.016;2022-11-23T14:53:38;14.90;87.40
44775;DHT22;31340;51.402;0.016;2022-11-23T14:56:43;14.80;87.80
44775;DHT22;31340;51.402;0.016;2022-11-23T15:01:47;14.60;88.70
44775;DHT22;31340;51.402;0.016;2022-11-23T15:04:27;14.40;88.80
44775;DHT22;31340;51.402;0.016;2022-11-23T15:07:21;14.20;89.30
44775;DHT22;31340;51.402;0.016;2022-11-23T15:12:44;14.10;90.00
44775;DHT22;31340;51.402;0.016;2022-11-23T15:18:00;13.90;90.20
44775;DHT22;31340;51.402;0.016;2022-11-23T15:20:34;13.90;90.20
44775;DHT22;31340;51.402;0.016;2022-11-23T15:23:03;13.80;90.40
44775;DHT22;31340;51.402;0.016;2022-11-23T15:25:31;13.70;90.40
44775;DHT22;31340;51.402;0.016;2022-11-23T15:27:59;13.70;90.40
44775;DHT22;31340;51.402;0.016;2022-11-23T15:30:28;13.60;90.30
44775;DHT22;31340;51.402;0.016;2022-11-23T15:33:08;13.60;90.30
44775;DHT22;31340;51.402;0.016;2022-11-23T15:35:38;13.50;90.30
44775;DHT22;31340;51.402;0.016;2022-11-23T15:38:11;13.40;90.40
44775;DHT22;31340;51.402;0.016;2022-11-23T15:40:47;13.40;90.30
44775;DHT22;31340;51.402;0.016;2022-11-23T15:43:17;13.30;90.50
44775;DHT22;31340;51.402;0.016;2022-11-23T15:48:29;13.30;90.90
44775;DHT22;31340;51.402;0.016;2022-11-23T15:51:00;13.30;91.00
44775;DHT22;31340;51.402;0.016;2022-11-23T15:53:45;13.20;91.20
44775;DHT22;31340;51.402;0.016;2022-11-23T15:56:32;13.20;91.40
44775;DHT22;31340;51.402;0.016;2022-11-23T16:01:56;13.10;91.70
44775;DHT22;31340;51.402;0.016;2022-11-23T16:04:37;12.90;91.90
44775;DHT22;31340;51.402;0.016;2022-11-23T16:09:47;13.00;92.30
44775;DHT22;31340;51.402;0.016;2022-11-23T16:17:43;12.80;92.80
44775;DHT22;31340;51.402;0.016;2022-11-23T16:20:14;12.70;93.00
44775;DHT22;31340;51.402;0.016;2022-11-23T16:22:47;12.70;93.60
44775;DHT22;31340;51.402;0.016;2022-11-23T16:28:04;12.50;93.80
44775;DHT22;31340;51.402;0.016;2022-11-23T16:30:38;12.50;94.10
44775;DHT22;31340;51.402;0.016;2022-11-23T16:33:18;12.40;94.20
44775;DHT22;31340;51.402;0.016;2022-11-23T16:35:46;12.40;94.50
44775;DHT22;31340;51.402;0.016;2022-11-23T16:38:16;12.30;94.70
44775;DHT22;31340;51.402;0.016;2022-11-23T16:40:45;12.20;94.80
44775;DHT22;31340;51.402;0.016;2022-11-23T16:43:15;12.20;95.00
44775;DHT22;31340;51.402;0.016;2022-11-23T16:45:45;12.10;95.50
44775;DHT22;31340;51.402;0.016;2022-11-23T16:50:52;12.10;95.60
44775;DHT22;31340;51.402;0.016;2022-11-23T16:53:21;12.00;95.60
44775;DHT22;31340;51.402;0.016;2022-11-23T16:55:53;12.00;95.80
44775;DHT22;31340;51.402;0.016;2022-11-23T16:58:21;12.00;96.00
44775;DHT22;31340;51.402;0.016;2022-11-23T17:00:49;12.00;96.10
44775;DHT22;31340;51.402;0.016;2022-11-23T17:03:18;11.90;96.10
44775;DHT22;31340;51.402;0.016;2022-11-23T17:05:47;11.90;96.30
44775;DHT22;31340;51.402;0.016;2022-11-23T17:08:15;11.90;96.40
44775;DHT22;31340;51.402;0.016;2022-11-23T17:10:50;11.80;96.50
44775;DHT22;31340;51.402;0.016;2022-11-23T17:13:24;11.80;96.60
44775;DHT22;31340;51.402;0.016;2022-11-23T17:15:52;11.80;96.70
44775;DHT22;31340;51.402;0.016;2022-11-23T17:18:21;11.80;96.70
44775;DHT22;31340;51.402;0.016;2022-11-23T17:20:49;11.70;96.80
44775;DHT22;31340;51.402;0.016;2022-11-23T17:23:17;11.70;96.90
44775;DHT22;31340;51.402;0.016;2022-11-23T17:25:44;11.70;96.90
44775;DHT22;31340;51.402;0.016;2022-11-23T17:28:15;11.70;97.00
44775;DHT22;31340;51.402;0.016;2022-11-23T17:30:42;11.70;97.10
44775;DHT22;31340;51.402;0.016;2022-11-23T17:33:11;11.60;97.10
44775;DHT22;31340;51.402;0.016;2022-11-23T17:35:39;11.60;97.20
44775;DHT22;31340;51.402;0.016;2022-11-23T17:38:15;11.50;97.20
44775;DHT22;31340;51.402;0.016;2022-11-23T17:40:43;11.60;97.40
44775;DHT22;31340;51.402;0.016;2022-11-23T17:43:12;11.60;97.40
44775;DHT22;31340;51.402;0.016;2022-11-23T17:45:43;11.60;97.40
44775;DHT22;31340;51.402;0.016;2022-11-23T17:48:12;11.50;97.40
44775;DHT22;31340;51.402;0.016;2022-11-23T17:50:40;11.50;97.50
44775;DHT22;31340;51.402;0.016;2022-11-23T17:53:09;11.50;97.60
44775;DHT22;31340;51.402;0.016;2022-11-23T17:55:37;11.50;97.60
44775;DHT22;31340;51.402;0.016;2022-11-23T17:58:06;11.50;97.70
44775;DHT22;31340;51.402;0.016;2022-11-23T18:00:34;11.50;97.70
44775;DHT22;31340;51.402;0.016;2022-11-23T18:03:03;11.50;97.80
44775;DHT22;31340;51.402;0.016;2022-11-23T18:05:30;11.50;97.80
44775;DHT22;31340;51.402;0.016;2022-11-23T18:07:58;11.50;97.90
44775;DHT22;31340;51.402;0.016;2022-11-23T18:10:26;11.50;98.00
44775;DHT22;31340;51.402;0.016;2022-11-23T18:12:53;11.50;98.10
44775;DHT22;31340;51.402;0.016;2022-11-23T18:15:21;11.50;98.20
44775;DHT22;31340;51.402;0.016;2022-11-23T18:17:49;11.50;98.20
44775;DHT22;31340;51.402;0.016;2022-11-23T18:20:17;11.40;98.30
44775;DHT22;31340;51.402;0.016;2022-11-23T18:22:45;11.50;98.40
44775;DHT22;31340;51.402;0.016;2022-11-23T18:25:13;11.50;98.50
44775;DHT22;31340;51.402;0.016;2022-11-23T18:27:40;11.60;98.60
44775;DHT22;31340;51.402;0.016;2022-11-23T18:30:08;11.50;98.50
44775;DHT22;31340;51.402;0.016;2022-11-23T18:32:36;11.60;98.70
44775;DHT22;31340;51.402;0.016;2022-11-23T18:35:04;11.60;98.70
44775;DHT22;31340;51.402;0.016;2022-11-23T18:37:33;11.60;98.80
44775;DHT22;31340;51.402;0.016;2022-11-23T18:40:01;11.60;98.90
44775;DHT22;31340;51.402;0.016;2022-11-23T18:42:29;11.60;98.90
44775;DHT22;31340;51.402;0.016;2022-11-23T18:44:56;11.60;99.00
44775;DHT22;31340;51.402;0.016;2022-11-23T18:47:24;11.60;99.00
44775;DHT22;31340;51.402;0.016;2022-11-23T18:49:52;11.60;99.10
44775;DHT22;31340;51.402;0.016;2022-11-23T18:52:20;11.70;99.20